Terminal Aerodrome Forecast
Issued by NWS

Home | Current Version | Previous Version | Text Only | Print | Product List | Glossary On
Versions: 1 2 3 4 5 6 7 8 9 10 11 12 13 14
000
FTUS42 KTAE 010700 AAA
TAFDHN
TAF AMD
KDHN 010759Z 0108/0206 08008KT 2SM -DZ BR OVC004
     FM011400 08007KT P6SM OVC009
     FM012000 07005KT P6SM OVC012
     FM020100 06004KT 4SM BR OVC006=

USA.gov is the U.S. government's official web portal to all federal, state and local government web resources and services.